Time;durP1;ratioP1;P1;durP2;ratioP2;P2;SDS_P1;SDS_P2;PMS_P1;PMS_P2;Temp;Humidity;BMP_temperature;BMP_pressure;BME280_temperature;BME280_humidity;BME280_pressure;Samples;Min_cycle;Max_cycle;Signal;HPM_P1;HPM_P2
2023/04/17 00:01:23;;;;;;;36.92;25.08;;;;;;;7.97;100.00;102421.97;5073202;28;20029;-72
2023/04/17 00:03:51;;;;;;;36.35;24.33;;;;;;;7.97;100.00;102416.69;5073369;28;20459;-70
2023/04/17 00:06:17;;;;;;;36.17;25.00;;;;;;;7.94;100.00;102416.59;5073158;28;20094;-69
2023/04/17 00:08:43;;;;;;;38.53;25.90;;;;;;;7.95;100.00;102413.13;5073375;28;20383;-71
2023/04/17 00:11:08;;;;;;;36.38;24.60;;;;;;;7.97;100.00;102416.69;5073155;28;20138;-69
2023/04/17 00:13:34;;;;;;;36.97;24.55;;;;;;;7.97;100.00;102415.81;5072919;28;20029;-69
2023/04/17 00:15:59;;;;;;;36.53;25.35;;;;;;;7.98;100.00;102407.97;5073174;28;20111;-69
2023/04/17 00:18:25;;;;;;;36.33;24.90;;;;;;;7.98;100.00;102412.31;5071803;28;20047;-69
2023/04/17 00:20:50;;;;;;;35.85;24.52;;;;;;;7.94;100.00;102407.78;5072770;28;20128;-70
2023/04/17 00:23:15;;;;;;;36.33;25.23;;;;;;;7.94;100.00;102411.31;5073297;28;20371;-69
2023/04/17 00:25:41;;;;;;;37.97;24.75;;;;;;;7.91;100.00;102405.03;5072689;28;20473;-69
2023/04/17 00:28:06;;;;;;;38.25;26.52;;;;;;;7.92;100.00;102406.81;5072826;28;20451;-70
2023/04/17 00:30:31;;;;;;;37.30;25.83;;;;;;;7.89;100.00;102397.06;5072988;28;20043;-70
2023/04/17 00:32:57;;;;;;;37.38;25.73;;;;;;;7.87;100.00;102393.47;5072712;28;20028;-69
2023/04/17 00:35:22;;;;;;;39.42;25.90;;;;;;;7.81;100.00;102402.00;5072709;28;20174;-69
2023/04/17 00:37:47;;;;;;;37.55;25.38;;;;;;;7.77;100.00;102392.19;5071625;28;20029;-69
2023/04/17 00:40:13;;;;;;;37.50;25.33;;;;;;;7.74;100.00;102392.06;5072518;28;20051;-73
2023/04/17 00:42:38;;;;;;;36.20;24.75;;;;;;;7.73;100.00;102392.00;5072918;28;20158;-73
2023/04/17 00:45:04;;;;;;;37.70;24.85;;;;;;;7.68;100.00;102394.47;5072750;28;20035;-73
2023/04/17 00:47:31;;;;;;;37.97;24.98;;;;;;;7.67;100.00;102395.28;5072484;28;20501;-69
2023/04/17 00:49:57;;;;;;;38.40;24.85;;;;;;;7.66;100.00;102394.41;5072706;28;20533;-71
2023/04/17 00:52:28;;;;;;;38.53;26.20;;;;;;;7.65;100.00;102394.34;5072518;28;20082;-73
2023/04/17 00:54:55;;;;;;;35.45;24.70;;;;;;;7.67;100.00;102390.03;5068450;28;20024;-73
2023/04/17 00:57:22;;;;;;;36.40;25.10;;;;;;;7.65;100.00;102392.59;5072374;28;20464;-72
2023/04/17 00:59:48;;;;;;;37.30;25.40;;;;;;;7.66;100.00;102388.25;5072475;28;20051;-72
2023/04/17 01:02:15;;;;;;;36.88;25.15;;;;;;;7.71;100.00;102388.44;5071162;28;20115;-72
2023/04/17 01:04:41;;;;;;;36.17;25.17;;;;;;;7.67;100.00;102385.69;5072344;28;20379;-73
2023/04/17 01:07:06;;;;;;;35.53;24.40;;;;;;;7.70;100.00;102390.16;5072505;28;20020;-71
2023/04/17 01:09:32;;;;;;;35.97;24.35;;;;;;;7.68;100.00;102389.19;5076129;28;20036;-73
2023/04/17 01:12:21;;;;;;;36.35;25.20;;;;;;;7.70;100.00;102389.25;5076507;28;20533;-73
2023/04/17 01:14:54;;;;;;;35.35;24.77;;;;;;;7.65;100.00;102392.59;5075256;28;20021;-71
2023/04/17 01:17:20;;;;;;;36.75;25.17;;;;;;;7.66;100.00;102383.88;5076417;28;20522;-70
2023/04/17 01:19:47;;;;;;;36.65;24.65;;;;;;;7.66;100.00;102394.41;5076076;28;20110;-71
2023/04/17 01:22:15;;;;;;;38.08;25.42;;;;;;;7.68;100.00;102399.72;5076021;28;20078;-73
2023/04/17 01:24:41;;;;;;;37.20;25.17;;;;;;;7.67;100.00;102393.56;5076293;28;20039;-71
2023/04/17 01:27:06;;;;;;;35.20;24.42;;;;;;;7.64;100.00;102396.06;5075915;28;20021;-72
2023/04/17 01:29:33;;;;;;;36.05;24.10;;;;;;;7.64;100.00;102388.16;5076023;28;20028;-70
2023/04/17 01:31:58;;;;;;;37.50;25.60;;;;;;;7.63;100.00;102394.28;5076106;28;20490;-72
2023/04/17 01:34:23;;;;;;;34.63;23.38;;;;;;;7.63;100.00;102394.28;5071708;28;20036;-70
2023/04/17 01:36:49;;;;;;;35.97;24.58;;;;;;;7.65;100.00;102392.59;5075877;28;20115;-71
2023/04/17 01:39:14;;;;;;;34.90;23.92;;;;;;;7.64;100.00;102396.06;5075901;28;20054;-72
2023/04/17 01:41:39;;;;;;;34.45;23.63;;;;;;;7.66;100.00;102401.41;5075813;28;20043;-69
2023/04/17 01:44:05;;;;;;;35.30;24.58;;;;;;;7.62;100.00;102397.75;5075657;28;20035;-71
2023/04/17 01:46:30;;;;;;;35.60;23.58;;;;;;;7.64;100.00;102397.81;5075547;28;20132;-69
2023/04/17 01:48:56;;;;;;;36.05;24.20;;;;;;;7.63;100.00;102399.53;5075898;28;20033;-68
2023/04/17 01:51:21;;;;;;;35.67;23.95;;;;;;;7.60;100.00;102385.34;5075801;28;20512;-69
2023/04/17 01:53:46;;;;;;;35.20;23.60;;;;;;;7.64;100.00;102396.06;5074284;28;20105;-69
2023/04/17 01:56:12;;;;;;;37.03;23.98;;;;;;;7.62;100.00;102400.38;5075549;28;20062;-69
2023/04/17 01:58:38;;;;;;;35.45;23.52;;;;;;;7.63;100.00;102407.44;5075488;28;20095;-71
2023/04/17 02:01:04;;;;;;;36.08;24.55;;;;;;;7.62;100.00;102404.75;5075378;28;20058;-68
2023/04/17 02:03:30;;;;;;;36.60;24.60;;;;;;;7.57;100.00;102399.31;5075292;28;20033;-68
2023/04/17 02:05:56;;;;;;;34.55;23.98;;;;;;;7.57;100.00;102399.31;5075501;28;20033;-68
2023/04/17 02:08:21;;;;;;;36.47;24.10;;;;;;;7.60;100.00;102398.50;5075274;28;20029;-68
2023/04/17 02:10:47;;;;;;;35.28;23.70;;;;;;;7.56;100.00;102394.84;5075147;28;20108;-68
2023/04/17 02:13:12;;;;;;;34.75;22.73;;;;;;;7.54;100.00;102399.13;5075378;28;20048;-68
2023/04/17 02:15:38;;;;;;;34.03;22.67;;;;;;;7.49;100.00;102396.31;5075168;28;20467;-68
2023/04/17 02:18:06;;;;;;;33.75;23.52;;;;;;;7.51;100.00;102399.03;5075002;28;20032;-68
2023/04/17 02:20:33;;;;;;;34.42;22.42;;;;;;;7.55;100.00;102400.06;5073852;28;20429;-69
2023/04/17 02:22:59;;;;;;;33.75;22.77;;;;;;;7.48;100.00;102393.63;5074963;28;20029;-69
2023/04/17 02:25:25;;;;;;;35.38;22.73;;;;;;;7.48;100.00;102391.00;5070813;28;20073;-68
2023/04/17 02:27:52;;;;;;;33.58;22.33;;;;;;;7.48;100.00;102396.25;5075125;28;20032;-69
2023/04/17 02:30:17;;;;;;;33.95;21.70;;;;;;;7.46;100.00;102392.69;5074765;28;20032;-69
2023/04/17 02:32:43;;;;;;;33.47;22.17;;;;;;;7.45;100.00;102390.88;5074765;28;20561;-71
2023/04/17 02:35:09;;;;;;;34.58;23.23;;;;;;;7.46;100.00;102395.31;5074961;28;20025;-70
2023/04/17 02:37:35;;;;;;;34.10;23.10;;;;;;;7.47;100.00;102397.09;5074689;28;20536;-73
2023/04/17 02:40:00;;;;;;;35.53;23.52;;;;;;;7.47;100.00;102394.47;5074628;28;20028;-71
2023/04/17 02:42:25;;;;;;;35.45;24.15;;;;;;;7.46;100.00;102393.56;5074790;28;20391;-71
2023/04/17 02:44:52;;;;;;;36.78;24.13;;;;;;;7.43;100.00;102403.09;5074527;28;20039;-72
2023/04/17 02:47:18;;;;;;;36.78;24.50;;;;;;;7.42;100.00;102396.00;5074604;28;20080;-71
2023/04/17 02:49:43;;;;;;;35.38;24.67;;;;;;;7.42;100.00;102396.00;5073281;28;20485;-71
2023/04/17 02:52:09;;;;;;;37.70;24.42;;;;;;;7.43;100.00;102396.06;5074500;28;20430;-72
2023/04/17 02:54:34;;;;;;;39.13;24.92;;;;;;;7.42;100.00;102403.91;5074548;28;20482;-70
2023/04/17 02:57:00;;;;;;;37.40;24.52;;;;;;;7.41;100.00;102397.75;5073047;28;20028;-72
2023/04/17 02:59:26;;;;;;;38.25;26.70;;;;;;;7.40;100.00;102405.59;5074241;28;20033;-72
2023/04/17 03:01:51;;;;;;;38.35;25.08;;;;;;;7.39;100.00;102401.16;5074331;28;20460;-71
2023/04/17 03:04:17;;;;;;;37.83;25.02;;;;;;;7.37;100.00;102398.47;5074319;28;20044;-69
2023/04/17 03:06:42;;;;;;;38.33;26.20;;;;;;;7.36;100.00;102401.03;5074095;28;20102;-73
2023/04/17 03:09:10;;;;;;;38.38;25.48;;;;;;;7.33;100.00;102400.03;5074314;28;20043;-72
2023/04/17 03:11:36;;;;;;;37.72;25.73;;;;;;;7.35;100.00;102404.47;5074199;28;20390;-70
2023/04/17 03:14:01;;;;;;;39.40;26.27;;;;;;;7.37;100.00;102406.34;5074011;28;20036;-70
2023/04/17 03:16:27;;;;;;;38.72;25.77;;;;;;;7.36;100.00;102407.19;5072979;28;20032;-70
2023/04/17 03:18:52;;;;;;;38.83;25.08;;;;;;;7.37;100.00;102411.63;5072535;28;20036;-72
2023/04/17 03:21:18;;;;;;;40.20;27.38;;;;;;;7.38;100.00;102408.13;5073838;28;20033;-72
2023/04/17 03:23:44;;;;;;;40.88;26.67;;;;;;;7.38;100.00;102405.50;5074009;28;20033;-73
2023/04/17 03:26:09;;;;;;;38.92;26.42;;;;;;;7.37;100.00;102410.69;5073668;28;20112;-70
2023/04/17 03:28:34;;;;;;;39.33;26.35;;;;;;;7.33;100.00;102405.31;5073934;28;20501;-70
2023/04/17 03:31:00;;;;;;;38.92;25.92;;;;;;;7.38;100.00;102401.97;5072198;28;20485;-72
2023/04/17 03:33:26;;;;;;;40.15;25.95;;;;;;;7.35;100.00;102410.63;5073621;28;20412;-72
2023/04/17 03:35:51;;;;;;;39.10;27.02;;;;;;;7.35;100.00;102396.59;5074029;28;20063;-71
2023/04/17 03:38:17;;;;;;;40.90;26.90;;;;;;;7.35;100.00;102400.09;5073507;28;20108;-73
2023/04/17 03:40:42;;;;;;;38.80;26.63;;;;;;;7.32;100.00;102406.16;5073435;28;20059;-71
2023/04/17 03:43:08;;;;;;;37.90;25.92;;;;;;;7.28;100.00;102408.56;5073799;28;20418;-70
2023/04/17 03:45:33;;;;;;;37.28;25.50;;;;;;;7.23;100.00;102403.13;5073301;28;20039;-68
2023/04/17 03:47:59;;;;;;;37.42;25.52;;;;;;;7.24;100.00;102404.94;5073378;28;20118;-68
2023/04/17 03:50:25;;;;;;;38.97;26.48;;;;;;;7.21;100.00;102402.16;5073470;28;20025;-68
2023/04/17 03:52:50;;;;;;;39.45;25.98;;;;;;;7.26;100.00;102405.00;5073234;28;20062;-68
2023/04/17 03:55:16;;;;;;;38.85;26.98;;;;;;;7.23;100.00;102403.13;5073199;28;20062;-68
2023/04/17 03:57:41;;;;;;;38.13;25.73;;;;;;;7.23;100.00;102403.13;5073352;28;20028;-69
2023/04/17 04:00:09;;;;;;;38.42;26.65;;;;;;;7.20;100.00;102404.72;5073033;28;20386;-68
2023/04/17 04:02:35;;;;;;;38.75;26.10;;;;;;;7.19;100.00;102408.19;5073015;28;20038;-68
2023/04/17 04:05:00;;;;;;;41.08;27.65;;;;;;;7.19;100.00;102416.97;5073259;28;20036;-69
2023/04/17 04:07:26;;;;;;;40.78;25.80;;;;;;;7.21;100.00;102414.41;5073084;28;20078;-68
2023/04/17 04:09:51;;;;;;;39.60;26.77;;;;;;;7.11;100.00;102408.75;5072942;28;20491;-69
2023/04/17 04:12:16;;;;;;;39.85;27.13;;;;;;;7.11;100.00;102407.88;5073175;28;20115;-69
2023/04/17 04:14:42;;;;;;;40.72;27.88;;;;;;;7.12;100.00;102405.31;5072860;28;20035;-69
2023/04/17 04:17:07;;;;;;;39.78;26.92;;;;;;;7.13;100.00;102407.06;5072965;28;20028;-68
2023/04/17 04:19:33;;;;;;;41.28;26.40;;;;;;;7.17;100.00;102407.25;5072744;28;20052;-68
2023/04/17 04:21:58;;;;;;;42.45;27.52;;;;;;;7.15;100.00;102410.69;5072779;28;20028;-68
2023/04/17 04:24:24;;;;;;;39.67;27.00;;;;;;;7.13;100.00;102417.59;5072937;28;20036;-68
2023/04/17 04:26:49;;;;;;;40.75;27.73;;;;;;;7.10;100.00;102417.47;5072640;28;20067;-68
2023/04/17 04:29:15;;;;;;;40.72;27.10;;;;;;;7.12;100.00;102417.53;5073028;28;20064;-70
2023/04/17 04:31:41;;;;;;;41.55;27.08;;;;;;;7.07;100.00;102411.19;5073008;28;20166;-70
2023/04/17 04:34:08;;;;;;;39.05;27.13;;;;;;;7.07;100.00;102414.69;5072527;28;20028;-69
2023/04/17 04:36:49;;;;;;;40.95;27.50;;;;;;;7.10;100.00;102416.56;5072726;28;20040;-73
2023/04/17 04:39:21;;;;;;;40.40;27.45;;;;;;;7.08;100.00;102423.50;5072514;28;20040;-71
2023/04/17 04:41:48;;;;;;;40.42;27.63;;;;;;;7.08;100.00;102428.78;5072628;28;20342;-71
2023/04/17 04:44:14;;;;;;;40.60;26.92;;;;;;;7.06;100.00;102430.41;5071997;28;20379;-70
2023/04/17 04:46:40;;;;;;;41.53;27.25;;;;;;;7.09;100.00;102425.28;5072307;28;20055;-70
2023/04/17 04:49:06;;;;;;;41.38;28.15;;;;;;;7.11;100.00;102431.53;5071705;28;20098;-72
2023/04/17 04:51:32;;;;;;;40.67;27.70;;;;;;;7.09;100.00;102431.47;5072495;28;20048;-72
2023/04/17 04:53:58;;;;;;;41.72;27.50;;;;;;;7.09;100.00;102427.91;5072506;28;20371;-72
2023/04/17 04:56:23;;;;;;;40.92;27.73;;;;;;;7.09;100.00;102427.91;5072514;28;20043;-70
2023/04/17 04:58:49;;;;;;;40.42;28.13;;;;;;;7.06;100.00;102423.44;5072290;28;20082;-70
2023/04/17 05:01:14;;;;;;;41.42;27.25;;;;;;;7.06;100.00;102431.34;5072441;28;20439;-70
2023/04/17 05:03:40;;;;;;;41.72;28.40;;;;;;;7.07;100.00;102427.84;5072506;28;20036;-69
2023/04/17 05:06:05;;;;;;;40.92;28.17;;;;;;;7.07;100.00;102437.47;5072486;28;20111;-71
2023/04/17 05:08:32;;;;;;;41.63;28.08;;;;;;;7.06;100.00;102433.97;5072352;28;20476;-70
2023/04/17 05:10:57;;;;;;;40.90;28.15;;;;;;;7.08;100.00;102434.91;5072420;28;20108;-71
2023/04/17 05:13:23;;;;;;;41.80;28.08;;;;;;;7.12;100.00;102441.19;5072271;28;20068;-70
2023/04/17 05:15:48;;;;;;;42.17;28.70;;;;;;;7.12;100.00;102441.19;5072400;28;20028;-70
2023/04/17 05:18:14;;;;;;;42.63;28.80;;;;;;;7.11;100.00;102444.69;5072417;28;20032;-73
2023/04/17 05:20:39;;;;;;;43.67;29.33;;;;;;;7.18;100.00;102452.00;5072134;28;20075;-70
2023/04/17 05:23:05;;;;;;;41.38;28.83;;;;;;;7.17;100.00;102458.09;5072523;28;20045;-72
2023/04/17 05:25:30;;;;;;;43.50;29.60;;;;;;;7.13;100.00;102443.00;5072112;28;20028;-72
2023/04/17 05:27:55;;;;;;;43.35;29.63;;;;;;;7.17;100.00;102457.22;5072092;28;20060;-70
2023/04/17 05:30:21;;;;;;;44.05;30.48;;;;;;;7.18;100.00;102457.28;5072289;28;20044;-72
2023/04/17 05:32:47;;;;;;;42.05;29.35;;;;;;;7.17;100.00;102450.22;5072086;28;20043;-72
2023/04/17 05:35:13;;;;;;;42.50;29.48;;;;;;;7.20;100.00;102450.34;5069696;28;20500;-69
2023/04/17 05:37:38;;;;;;;42.35;29.25;;;;;;;7.24;100.00;102454.03;5070385;28;20112;-71
2023/04/17 05:40:05;;;;;;;42.00;29.02;;;;;;;7.23;100.00;102449.56;5069562;28;20109;-71
2023/04/17 05:42:32;;;;;;;43.83;29.90;;;;;;;7.22;100.00;102453.91;5064336;28;20062;-68
2023/04/17 05:44:57;;;;;;;44.38;29.77;;;;;;;7.21;100.00;102453.84;5068939;28;20029;-68
2023/04/17 05:47:22;;;;;;;42.28;29.83;;;;;;;7.19;100.00;102463.41;5064658;28;20060;-69
2023/04/17 05:49:50;;;;;;;42.58;29.55;;;;;;;7.20;100.00;102463.50;5067050;28;20128;-71
2023/04/17 05:52:15;;;;;;;44.42;30.73;;;;;;;7.24;100.00;102469.81;5064716;28;20025;-70
2023/04/17 05:54:41;;;;;;;45.08;30.77;;;;;;;7.25;100.00;102466.31;5071162;28;20497;-69
2023/04/17 05:57:06;;;;;;;44.25;30.42;;;;;;;7.29;100.00;102466.50;5072231;28;20035;-69
2023/04/17 05:59:31;;;;;;;44.33;31.10;;;;;;;7.28;100.00;102461.19;5069587;28;20154;-69
2023/04/17 06:01:58;;;;;;;44.97;30.83;;;;;;;7.28;100.00;102461.19;5073928;28;20029;-69
2023/04/17 06:04:24;;;;;;;44.53;31.20;;;;;;;7.25;100.00;102464.59;5075684;28;20032;-70
2023/04/17 06:06:49;;;;;;;45.53;30.85;;;;;;;7.26;100.00;102476.00;5071178;28;20033;-69
2023/04/17 06:09:15;;;;;;;44.38;30.58;;;;;;;7.23;100.00;102460.09;5070278;28;20021;-69
2023/04/17 06:11:40;;;;;;;45.17;31.25;;;;;;;7.27;100.00;102473.44;5069820;28;20385;-71
2023/04/17 06:14:05;;;;;;;45.35;31.42;;;;;;;7.30;100.00;102483.22;5070691;28;20072;-71
2023/04/17 06:16:31;;;;;;;43.15;30.35;;;;;;;7.36;100.00;102472.94;5071086;28;20079;-70
2023/04/17 06:18:56;;;;;;;43.80;30.10;;;;;;;7.23;100.00;102479.41;5069797;28;20029;-69
2023/04/17 06:21:22;;;;;;;44.50;30.92;;;;;;;7.25;100.00;102477.75;5072268;28;20467;-68
2023/04/17 06:23:47;;;;;;;43.50;30.38;;;;;;;7.28;100.00;102479.59;5071867;28;20036;-69
2023/04/17 06:26:12;;;;;;;44.83;31.83;;;;;;;7.33;100.00;102473.72;5066158;28;20020;-68
2023/04/17 06:28:38;;;;;;;45.53;31.25;;;;;;;7.33;100.00;102486.88;5070050;28;20108;-69
2023/04/17 06:31:03;;;;;;;45.17;31.85;;;;;;;7.30;100.00;102492.00;5074079;28;20025;-72
2023/04/17 06:33:28;;;;;;;44.25;31.52;;;;;;;7.30;100.00;102489.38;5070266;28;20040;-70
2023/04/17 06:35:54;;;;;;;45.20;31.55;;;;;;;7.32;100.00;102487.72;5073169;28;20048;-69
2023/04/17 06:38:19;;;;;;;46.97;32.72;;;;;;;7.38;100.00;102496.69;5073424;28;20037;-71
2023/04/17 06:40:45;;;;;;;46.22;31.15;;;;;;;7.33;100.00;102492.13;5069428;28;20399;-70
2023/04/17 06:43:10;;;;;;;45.80;31.98;;;;;;;7.40;100.00;102497.69;5070148;28;20063;-70
2023/04/17 06:45:36;;;;;;;46.00;31.27;;;;;;;7.43;100.00;102489.91;5066379;28;20537;-71
2023/04/17 06:48:01;;;;;;;46.22;31.10;;;;;;;7.48;100.00;102496.25;5070261;28;20052;-71
2023/04/17 06:50:27;;;;;;;47.13;31.88;;;;;;;7.48;100.00;102496.25;5069034;28;20039;-70
2023/04/17 06:52:52;;;;;;;45.28;30.92;;;;;;;7.53;100.00;102494.75;5069765;28;20677;-71
2023/04/17 06:55:18;;;;;;;44.80;29.90;;;;;;;7.49;100.00;102495.44;5069680;28;20035;-71
2023/04/17 06:57:43;;;;;;;43.75;30.35;;;;;;;7.48;100.00;102510.34;5070306;28;20039;-70
2023/04/17 07:00:09;;;;;;;45.15;31.10;;;;;;;7.55;100.00;102506.22;5072922;28;20451;-70
2023/04/17 07:02:34;;;;;;;44.20;29.35;;;;;;;7.62;100.00;102508.28;5068753;28;20480;-72
2023/04/17 07:05:00;;;;;;;45.47;30.35;;;;;;;7.64;100.00;102509.25;5068179;28;20059;-72
2023/04/17 07:07:26;;;;;;;43.78;29.67;;;;;;;7.68;100.00;102507.66;5066214;28;20443;-72
2023/04/17 07:09:52;;;;;;;45.03;30.48;;;;;;;7.67;100.00;102514.66;5075456;28;20028;-72
2023/04/17 07:12:17;;;;;;;45.05;31.08;;;;;;;7.71;100.00;102515.69;5074217;28;20036;-72
2023/04/17 07:14:42;;;;;;;45.25;30.42;;;;;;;7.66;100.00;102515.47;5065774;28;20029;-71
2023/04/17 07:17:08;;;;;;;44.30;30.70;;;;;;;7.65;100.00;102525.94;5061249;28;20032;-69
2023/04/17 07:19:33;;;;;;;44.60;30.90;;;;;;;7.66;100.00;102531.28;5062864;28;20534;-72
2023/04/17 07:21:59;;;;;;;44.30;31.35;;;;;;;7.71;100.00;102527.94;5069517;28;20034;-72
2023/04/17 07:24:24;;;;;;;44.70;31.55;;;;;;;7.74;100.00;102533.34;5080011;28;20036;-72
2023/04/17 07:26:50;;;;;;;43.28;31.05;;;;;;;7.76;100.00;102535.22;5072411;28;20414;-72
2023/04/17 07:29:15;;;;;;;43.80;30.70;;;;;;;7.77;100.00;102539.63;5073802;28;20467;-73
2023/04/17 07:31:41;;;;;;;44.75;30.20;;;;;;;7.84;100.00;102536.41;5073920;28;20041;-72
2023/04/17 07:34:06;;;;;;;42.45;31.27;;;;;;;7.93;100.00;102533.28;5073843;28;20505;-73
2023/04/17 07:36:32;;;;;;;43.00;30.33;;;;;;;8.06;100.00;102536.44;5064771;28;20025;-74
2023/04/17 07:38:57;;;;;;;42.85;30.52;;;;;;;8.10;100.00;102535.75;5065963;28;20593;-74
2023/04/17 07:41:22;;;;;;;42.30;30.73;;;;;;;8.17;100.00;102536.03;5066697;28;20379;-74
2023/04/17 07:43:48;;;;;;;42.00;29.88;;;;;;;8.22;100.00;102533.59;5069290;28;20589;-72
2023/04/17 07:46:13;;;;;;;42.83;30.02;;;;;;;8.38;100.00;102536.00;5071139;28;20122;-72
2023/04/17 07:48:39;;;;;;;42.10;29.77;;;;;;;8.58;100.00;102538.59;5067801;28;20375;-72
2023/04/17 07:51:04;;;;;;;40.08;29.15;;;;;;;8.75;100.00;102548.88;5069851;28;20355;-72
2023/04/17 07:53:30;;;;;;;42.22;29.65;;;;;;;8.90;100.00;102547.75;5074332;28;20025;-73
2023/04/17 07:55:57;;;;;;;41.40;29.50;;;;;;;8.94;100.00;102542.56;5072338;28;20033;-73
2023/04/17 07:58:22;;;;;;;42.55;31.42;;;;;;;8.86;100.00;102544.94;5073841;28;20112;-73
2023/04/17 08:00:49;;;;;;;42.33;30.70;;;;;;;8.78;100.00;102546.38;5067891;28;20124;-73
2023/04/17 08:03:15;;;;;;;41.97;30.35;;;;;;;8.78;100.00;102546.38;5070480;28;20025;-73
2023/04/17 08:05:40;;;;;;;41.30;29.65;;;;;;;8.76;100.00;102545.41;5073193;28;20026;-73
2023/04/17 08:08:06;;;;;;;41.90;29.83;;;;;;;8.85;100.00;102551.03;5073469;28;20060;-72
2023/04/17 08:10:31;;;;;;;39.97;29.25;;;;;;;8.98;100.00;102552.41;5073226;28;20032;-72
2023/04/17 08:12:57;;;;;;;39.72;28.35;;;;;;;9.24;100.00;102543.72;5072946;28;20024;-73
2023/04/17 08:15:22;;;;;;;38.13;27.38;;;;;;;9.41;100.00;102552.25;5073221;28;20072;-72
2023/04/17 08:17:48;;;;;;;38.65;27.35;;;;;;;9.58;100.00;102541.41;5072830;28;20024;-72
2023/04/17 08:20:16;;;;;;;38.00;26.45;;;;;;;9.69;100.00;102555.00;5072651;28;20044;-72
2023/04/17 08:22:44;;;;;;;36.60;25.48;;;;;;;9.70;100.00;102554.16;5066672;28;20029;-70
2023/04/17 08:25:10;;;;;;;37.53;26.55;;;;;;;9.81;100.00;102557.16;5067884;28;20423;-69
2023/04/17 08:27:38;;;;;;;37.45;26.23;;;;;;;9.90;100.00;102552.19;5077012;28;20028;-74
2023/04/17 08:30:05;;;;;;;35.42;24.60;;;;;;;10.09;100.00;102554.63;5067036;28;20116;-74
2023/04/17 08:32:41;;;;;;;35.67;25.55;;;;;;;10.28;100.00;102552.56;5071079;28;20090;-74
2023/04/17 08:35:10;;;;;;;34.45;24.80;;;;;;;10.17;100.00;102557.53;5064002;28;20100;-73
2023/04/17 08:37:36;;;;;;;34.83;24.35;;;;;;;10.18;100.00;102554.03;5069351;28;20087;-74
2023/04/17 08:40:03;;;;;;;35.08;24.00;;;;;;;10.16;100.00;102557.47;5074280;28;20032;-73
2023/04/17 08:42:33;;;;;;;35.55;25.13;;;;;;;10.16;100.00;102553.06;5064964;28;20160;-69
2023/04/17 08:45:00;;;;;;;36.92;25.13;;;;;;;10.27;100.00;102554.31;5067031;28;20043;-70
2023/04/17 08:47:27;;;;;;;34.92;24.30;;;;;;;10.41;100.00;102562.75;5063147;28;20068;-73
2023/04/17 08:49:54;;;;;;;33.72;23.95;;;;;;;10.48;100.00;102555.91;5069842;28;20029;-70
2023/04/17 08:52:20;;;;;;;36.15;24.65;;;;;;;10.48;100.00;102557.66;5071110;28;20167;-72
2023/04/17 08:54:46;;;;;;;36.33;24.77;;;;;;;10.49;100.00;102556.81;5073560;28;20116;-72
2023/04/17 08:57:11;;;;;;;38.72;25.52;;;;;;;10.50;100.00;102556.88;5068674;28;20087;-71
2023/04/17 08:59:37;;;;;;;45.25;27.05;;;;;;;10.72;100.00;102555.78;5069017;28;20506;-73
2023/04/17 09:02:06;;;;;;;34.80;23.95;;;;;;;10.81;100.00;102556.06;5068624;28;20523;-73
2023/04/17 09:04:36;;;;;;;35.88;24.88;;;;;;;10.91;100.00;102561.66;5075527;28;20036;-73
2023/04/17 09:07:02;;;;;;;35.13;24.05;;;;;;;11.18;100.00;102558.91;5070611;28;20024;-73
2023/04/17 09:09:47;;;;;;;35.63;24.35;;;;;;;11.15;100.00;102559.72;5068909;28;20499;-73
2023/04/17 09:12:15;;;;;;;34.22;24.60;;;;;;;11.05;100.00;102557.63;5064068;28;20025;-73
2023/04/17 09:14:41;;;;;;;34.75;25.30;;;;;;;10.93;100.00;102559.94;5062569;28;20025;-73
2023/04/17 09:17:06;;;;;;;34.70;25.13;;;;;;;11.05;100.00;102557.63;5066057;28;20490;-73
2023/04/17 09:19:32;;;;;;;34.67;24.30;;;;;;;11.20;100.00;102557.22;5069274;28;20040;-73
2023/04/17 09:22:16;;;;;;;34.92;24.15;;;;;;;11.37;100.00;102560.31;5068777;28;20038;-73
2023/04/17 09:24:43;;;;;;;34.58;24.23;;;;;;;11.49;100.00;102558.03;5067704;28;20028;-73
2023/04/17 09:27:22;;;;;;;34.03;24.52;;;;;;;11.78;100.00;102562.31;5072147;28;20020;-73
2023/04/17 09:30:02;;;;;;;34.03;23.98;;;;;;;11.86;100.00;102564.31;5074431;28;20043;-73
2023/04/17 09:32:30;;;;;;;34.60;24.77;;;;;;;12.05;100.00;102553.34;5076187;28;20431;-73
2023/04/17 09:34:58;;;;;;;34.90;23.70;;;;;;;12.21;100.00;102551.09;5058178;28;20399;-73
2023/04/17 09:37:23;;;;;;;34.78;24.17;;;;;;;12.51;100.00;102554.47;5075926;28;20391;-73
2023/04/17 09:39:57;;;;;;;34.25;23.58;;;;;;;12.87;100.00;102549.09;5076042;28;20033;-72
2023/04/17 09:42:23;;;;;;;33.63;23.83;;;;;;;13.36;100.00;102546.59;5075872;28;20020;-70
2023/04/17 09:44:48;;;;;;;33.13;22.88;;;;;;;13.77;100.00;102551.81;5075620;28;20039;-70
2023/04/17 09:47:16;;;;;;;32.28;22.42;;;;;;;13.74;100.00;102559.72;5075511;28;20055;-70
2023/04/17 09:49:48;;;;;;;34.58;23.70;;;;;;;13.98;100.00;102554.81;5075785;28;20464;-70
2023/04/17 09:52:14;;;;;;;32.85;22.95;;;;;;;14.12;100.00;102548.88;5075583;28;20024;-70
2023/04/17 09:54:41;;;;;;;32.42;22.98;;;;;;;14.62;97.58;102547.91;5075459;28;20168;-70
2023/04/17 09:57:08;;;;;;;31.60;22.42;;;;;;;15.05;85.85;102550.25;5074366;28;20029;-70
2023/04/17 09:59:38;;;;;;;32.08;22.88;;;;;;;14.90;87.23;102553.63;5071663;28;20391;-70
2023/04/17 10:02:08;;;;;;;31.70;22.88;;;;;;;15.11;84.53;102557.44;5071418;28;20025;-70
2023/04/17 10:04:34;;;;;;;31.45;22.00;;;;;;;15.28;81.29;102568.28;5071264;28;20229;-71
2023/04/17 10:06:59;;;;;;;33.08;23.50;;;;;;;15.18;76.13;102553.09;5075393;28;20123;-70
2023/04/17 10:09:25;;;;;;;31.75;21.95;;;;;;;14.80;75.04;102552.59;5075272;28;20039;-70
2023/04/17 10:11:51;;;;;;;31.30;21.48;;;;;;;14.87;75.02;102548.25;5075400;28;20048;-70
2023/04/17 10:14:23;;;;;;;33.00;22.10;;;;;;;15.14;74.55;102547.72;5073903;28;20036;-70
2023/04/17 10:16:49;;;;;;;31.60;22.30;;;;;;;15.20;72.26;102546.88;5075146;28;20033;-71
2023/04/17 10:19:35;;;;;;;31.20;21.15;;;;;;;16.04;72.27;102533.53;5074994;28;20024;-70
2023/04/17 10:22:18;;;;;;;31.95;20.98;;;;;;;16.50;70.05;102543.69;5075012;28;20103;-70
2023/04/17 10:24:50;;;;;;;37.22;21.05;;;;;;;17.48;62.84;102536.16;5072304;28;20035;-70
2023/04/17 10:27:25;;;;;;;30.05;20.52;;;;;;;18.56;59.91;102538.84;5073939;28;20139;-71
2023/04/17 10:29:51;;;;;;;30.33;19.88;;;;;;;19.41;52.77;102539.44;5074835;28;20056;-71
2023/04/17 10:32:17;;;;;;;29.50;19.50;;;;;;;20.61;51.79;102536.69;5075010;28;20062;-70
2023/04/17 10:34:42;;;;;;;30.60;20.88;;;;;;;20.25;50.45;102539.72;5075167;28;20486;-70
2023/04/17 10:37:13;;;;;;;29.05;19.75;;;;;;;19.88;51.18;102537.38;5074874;28;20020;-69
2023/04/17 10:39:59;;;;;;;29.05;20.63;;;;;;;19.58;53.30;102542.00;5071308;28;20028;-72
2023/04/17 10:42:25;;;;;;;28.77;20.20;;;;;;;20.37;50.45;102544.09;5074203;28;20039;-70
2023/04/17 10:44:56;;;;;;;29.05;20.02;;;;;;;20.19;48.88;102540.66;5074847;28;20468;-70
2023/04/17 10:47:30;;;;;;;29.55;20.05;;;;;;;18.95;51.19;102540.53;5074388;28;20043;-69
2023/04/17 10:50:00;;;;;;;28.55;19.15;;;;;;;18.80;51.47;102540.59;5074491;28;20137;-69
2023/04/17 10:52:31;;;;;;;28.42;18.48;;;;;;;19.40;50.02;102531.41;5073230;28;20150;-72
2023/04/17 10:55:15;;;;;;;28.83;19.30;;;;;;;19.24;51.80;102531.50;5070704;28;20036;-72
2023/04/17 10:57:59;;;;;;;28.17;18.15;;;;;;;18.60;51.38;102529.91;5070688;28;20290;-70
2023/04/17 11:00:49;;;;;;;28.27;18.42;;;;;;;18.42;51.18;102531.75;5072277;28;20046;-71
2023/04/17 11:03:15;;;;;;;28.30;19.35;;;;;;;18.65;51.02;102533.47;5071038;28;20055;-69
2023/04/17 11:05:45;;;;;;;28.08;18.67;;;;;;;19.01;50.34;102533.41;5074307;28;20100;-69
2023/04/17 11:08:11;;;;;;;28.63;19.67;;;;;;;19.37;50.39;102521.59;5070345;28;20472;-71